Time;durP1;ratioP1;P1;durP2;ratioP2;P2;SDS_P1;SDS_P2;PMS_P1;PMS_P2;Temp;Humidity;BMP_temperature;BMP_pressure;BME280_temperature;BME280_humidity;BME280_pressure;Samples;Min_cycle;Max_cycle;Signal;HPM_P1;HPM_P2
2021/12/21 00:01:36;;;;;;;22.20;14.00;;;-1.50;99.90;;;;;;2123638;67;20292;-70
2021/12/21 00:04:18;;;;;;;28.58;14.43;;;-1.50;99.90;;;;;;2126781;67;20324;-70
2021/12/21 00:07:01;;;;;;;21.70;13.57;;;-1.70;99.90;;;;;;2125900;67;20264;-71
2021/12/21 00:09:48;;;;;;;24.60;13.90;;;-1.60;99.90;;;;;;2118167;67;20343;-70
2021/12/21 00:12:50;;;;;;;22.67;13.10;;;-1.60;99.90;;;;;;2111797;67;20304;-71
2021/12/21 00:18:44;;;;;;;25.13;14.52;;;-1.70;99.90;;;;;;2132605;67;20729;-71
2021/12/21 00:21:41;;;;;;;26.80;14.57;;;-1.70;99.90;;;;;;2121326;67;20331;-71
2021/12/21 00:24:30;;;;;;;21.98;13.77;;;-1.70;99.90;;;;;;2124362;67;20203;-70
2021/12/21 00:27:16;;;;;;;27.63;15.45;;;-1.70;99.90;;;;;;2117529;67;20201;-70
2021/12/21 00:29:57;;;;;;;28.27;15.80;;;-1.70;99.90;;;;;;2123153;67;20188;-70
2021/12/21 00:32:39;;;;;;;24.65;14.68;;;-1.70;99.90;;;;;;2130317;67;20341;-71
2021/12/21 00:35:23;;;;;;;27.55;15.45;;;-1.60;99.90;;;;;;2132569;67;20395;-69
2021/12/21 00:38:10;;;;;;;24.05;14.20;;;-1.70;99.90;;;;;;2128564;67;20192;-70
2021/12/21 00:40:54;;;;;;;26.40;16.45;;;-1.80;99.90;;;;;;2132932;66;20270;-71
2021/12/21 00:43:37;;;;;;;30.20;16.20;;;-1.70;99.90;;;;;;2146141;66;20341;-69
2021/12/21 00:46:22;;;;;;;31.42;17.92;;;-1.80;99.90;;;;;;2147112;66;20238;-71
2021/12/21 00:49:13;;;;;;;46.72;27.30;;;-1.70;99.90;;;;;;2127618;67;20357;-70
2021/12/21 00:51:58;;;;;;;38.53;23.17;;;-1.70;99.90;;;;;;2120009;67;20216;-71
2021/12/21 00:54:39;;;;;;;29.48;19.45;;;-1.70;99.90;;;;;;2133471;67;20175;-70
2021/12/21 00:57:21;;;;;;;30.00;19.88;;;-1.70;99.90;;;;;;2126776;67;20180;-70
2021/12/21 01:00:09;;;;;;;38.45;20.98;;;-1.80;99.90;;;;;;2138974;67;20294;-70
2021/12/21 01:02:57;;;;;;;33.17;20.83;;;-1.80;99.90;;;;;;2129165;67;20400;-70
2021/12/21 01:08:29;;;;;;;25.30;16.65;;;-1.80;99.90;;;;;;2117788;67;20407;-70
2021/12/21 01:11:20;;;;;;;30.17;20.20;;;-1.90;99.90;;;;;;2103613;67;20698;-70
2021/12/21 01:17:10;;;;;;;47.60;23.23;;;-1.90;99.90;;;;;;2084870;68;20172;-70
2021/12/21 01:20:07;;;;;;;38.45;24.20;;;-1.90;99.90;;;;;;2089463;68;20303;-70
2021/12/21 01:31:56;;;;;;;39.08;25.40;;;-2.00;99.90;;;;;;2134036;67;20225;-70
2021/12/21 01:35:00;;;;;;;46.55;25.70;;;-2.00;99.90;;;;;;2134930;67;20257;-71
2021/12/21 01:38:20;;;;;;;44.67;24.10;;;-2.00;99.90;;;;;;2106367;67;20715;-70
2021/12/21 01:41:10;;;;;;;39.55;23.50;;;-1.80;99.90;;;;;;2102073;68;20623;-70
2021/12/21 01:44:14;;;;;;;38.15;24.50;;;-2.00;99.90;;;;;;2119289;67;20244;-70
2021/12/21 01:50:00;;;;;;;40.03;22.63;;;-2.00;99.90;;;;;;2132975;67;20211;-70
2021/12/21 01:52:44;;;;;;;48.10;25.20;;;-2.00;99.90;;;;;;2146994;66;20828;-70
2021/12/21 01:55:26;;;;;;;39.30;24.02;;;-2.00;99.90;;;;;;2153819;66;20185;-70
2021/12/21 01:58:09;;;;;;;37.20;21.90;;;-1.90;99.90;;;;;;2146820;66;20190;-70
2021/12/21 02:00:54;;;;;;;40.65;20.90;;;-1.90;99.90;;;;;;2146510;66;20179;-70
2021/12/21 02:03:36;;;;;;;30.45;19.25;;;-1.90;99.90;;;;;;2139849;66;20191;-70
2021/12/21 02:06:26;;;;;;;27.83;18.05;;;-1.90;99.90;;;;;;2132258;67;20339;-70
2021/12/21 02:09:07;;;;;;;31.13;16.85;;;-2.00;99.90;;;;;;2118529;67;20193;-72
2021/12/21 02:11:49;;;;;;;24.70;16.52;;;-2.00;99.90;;;;;;2098844;68;20263;-70
2021/12/21 02:14:31;;;;;;;26.65;17.33;;;-2.00;99.90;;;;;;2108960;67;20284;-71
2021/12/21 02:31:26;;;;;;;25.52;16.67;;;-2.00;99.90;;;;;;2112346;67;20200;-71
2021/12/21 02:34:08;;;;;;;22.27;15.43;;;-2.10;99.90;;;;;;2112248;67;20725;-70
2021/12/21 02:36:52;;;;;;;27.60;16.15;;;-2.30;99.90;;;;;;2108192;67;20324;-70
2021/12/21 02:39:34;;;;;;;24.88;16.50;;;-2.10;99.90;;;;;;2112904;67;20267;-71
2021/12/21 02:42:21;;;;;;;27.90;17.45;;;-2.20;99.90;;;;;;2104263;67;20257;-71
2021/12/21 02:45:11;;;;;;;29.20;16.80;;;-2.20;99.90;;;;;;2099042;67;20686;-71
2021/12/21 02:48:01;;;;;;;27.10;16.02;;;-2.20;99.90;;;;;;2078803;68;20294;-71
2021/12/21 02:50:43;;;;;;;24.95;16.23;;;-2.20;99.90;;;;;;2102416;67;20201;-71
2021/12/21 02:53:25;;;;;;;28.85;16.13;;;-2.20;99.90;;;;;;2104306;67;21005;-70
2021/12/21 02:56:09;;;;;;;27.05;17.48;;;-2.30;99.90;;;;;;2098848;68;20243;-70
2021/12/21 02:58:54;;;;;;;24.45;16.00;;;-2.30;99.90;;;;;;2110906;67;20302;-70
2021/12/21 03:01:40;;;;;;;28.42;17.75;;;-2.30;99.90;;;;;;2123861;67;20393;-71
2021/12/21 03:04:25;;;;;;;23.67;16.92;;;-2.30;99.90;;;;;;2126172;67;20260;-70
2021/12/21 03:09:56;;;;;;;27.13;18.17;;;-2.20;99.90;;;;;;2132285;67;20203;-70
2021/12/21 03:15:40;;;;;;;27.73;17.88;;;-2.40;99.90;;;;;;2124629;67;20209;-70
2021/12/21 03:18:24;;;;;;;25.98;17.10;;;-2.40;99.90;;;;;;2119539;67;20735;-70
2021/12/21 03:21:09;;;;;;;24.17;17.35;;;-2.40;99.90;;;;;;2125293;67;20313;-70
2021/12/21 03:23:51;;;;;;;31.77;18.65;;;-2.40;99.90;;;;;;2106325;67;20690;-69
2021/12/21 03:26:32;;;;;;;27.95;17.60;;;-2.30;99.90;;;;;;2095442;68;20290;-70
2021/12/21 03:29:15;;;;;;;24.83;15.48;;;-2.30;99.90;;;;;;2091681;68;20211;-70
2021/12/21 03:31:56;;;;;;;26.85;17.60;;;-2.20;99.90;;;;;;2093174;68;20288;-70
2021/12/21 03:34:38;;;;;;;29.35;16.20;;;-2.30;99.90;;;;;;2088197;68;20210;-68
2021/12/21 03:37:21;;;;;;;26.00;17.15;;;-2.40;99.90;;;;;;2090569;68;20223;-70
2021/12/21 03:40:06;;;;;;;25.48;16.45;;;-2.40;99.90;;;;;;2084069;68;20585;-70
2021/12/21 03:42:52;;;;;;;25.08;15.98;;;-2.40;99.90;;;;;;2090965;68;20313;-70
2021/12/21 03:45:44;;;;;;;23.98;16.33;;;-2.30;99.90;;;;;;2111768;67;20952;-70
2021/12/21 03:48:28;;;;;;;27.73;17.90;;;-2.40;99.90;;;;;;2118105;67;20316;-71
2021/12/21 03:51:17;;;;;;;25.85;17.23;;;-2.40;99.90;;;;;;2111568;67;20221;-70
2021/12/21 03:53:59;;;;;;;29.35;18.20;;;-2.40;99.90;;;;;;2107290;67;20194;-70
2021/12/21 03:56:48;;;;;;;28.63;16.50;;;-2.50;99.90;;;;;;2106245;67;20282;-70
2021/12/21 03:59:29;;;;;;;25.10;15.95;;;-2.50;99.90;;;;;;2099126;68;21132;-70
2021/12/21 04:02:12;;;;;;;26.10;16.77;;;-2.50;99.90;;;;;;2102811;67;20430;-69
2021/12/21 04:04:56;;;;;;;27.13;16.80;;;-2.50;99.90;;;;;;2104593;67;20225;-70
2021/12/21 04:07:38;;;;;;;23.92;16.70;;;-2.50;99.90;;;;;;2102963;67;20249;-68
2021/12/21 04:10:20;;;;;;;26.08;17.38;;;-2.50;99.90;;;;;;2107702;68;20342;-68
2021/12/21 04:13:02;;;;;;;26.55;16.92;;;-2.50;99.90;;;;;;2082890;68;20193;-71
2021/12/21 04:15:44;;;;;;;22.85;17.20;;;-2.50;99.90;;;;;;2091809;68;20316;-70
2021/12/21 04:18:26;;;;;;;27.20;16.60;;;-2.40;99.90;;;;;;2093866;68;20381;-70
2021/12/21 04:21:12;;;;;;;25.63;17.02;;;-2.50;99.90;;;;;;2089781;68;20205;-71
2021/12/21 04:23:57;;;;;;;22.05;16.30;;;-2.50;99.90;;;;;;2101074;67;20404;-71
2021/12/21 04:26:42;;;;;;;23.73;16.58;;;-2.50;99.90;;;;;;2105510;67;20178;-70
2021/12/21 04:29:23;;;;;;;26.70;16.20;;;-2.60;99.90;;;;;;2096989;68;20206;-72
2021/12/21 04:32:08;;;;;;;24.23;16.00;;;-2.60;99.90;;;;;;2089574;68;20317;-70
2021/12/21 04:34:52;;;;;;;26.63;16.42;;;-2.60;99.90;;;;;;2105322;67;20629;-70
2021/12/21 04:37:43;;;;;;;22.42;15.52;;;-2.60;99.90;;;;;;2104261;67;20194;-70
2021/12/21 04:40:38;;;;;;;22.75;16.52;;;-2.60;99.90;;;;;;2125060;67;20391;-71
2021/12/21 04:43:19;;;;;;;28.25;15.88;;;-2.70;99.90;;;;;;2121226;67;20784;-71
2021/12/21 04:46:01;;;;;;;23.90;16.40;;;-2.50;99.90;;;;;;2120569;67;20339;-69
2021/12/21 04:48:45;;;;;;;27.33;16.65;;;-2.80;99.90;;;;;;2117578;67;20177;-70
2021/12/21 04:51:27;;;;;;;21.17;15.15;;;-2.80;99.90;;;;;;2121413;67;20329;-71
2021/12/21 04:54:12;;;;;;;22.30;16.00;;;-2.80;99.90;;;;;;2110875;67;20264;-70
2021/12/21 04:56:54;;;;;;;25.73;17.00;;;-2.80;99.90;;;;;;2124672;67;20388;-70
2021/12/21 04:59:37;;;;;;;25.17;15.73;;;-2.30;99.90;;;;;;2143835;66;20715;-71
2021/12/21 05:02:23;;;;;;;22.80;16.05;;;-2.80;99.90;;;;;;2142398;66;20335;-71
2021/12/21 05:05:10;;;;;;;27.75;16.50;;;-2.80;99.90;;;;;;2134137;66;20315;-71
2021/12/21 05:08:05;;;;;;;24.85;16.00;;;-3.00;99.90;;;;;;2139837;66;20815;-70
2021/12/21 05:10:53;;;;;;;25.77;16.70;;;-2.80;99.90;;;;;;2126241;67;20319;-70
2021/12/21 05:13:39;;;;;;;24.20;15.70;;;-2.80;99.90;;;;;;2117735;67;20308;-70
2021/12/21 05:16:22;;;;;;;;;;;-2.90;99.90;;;;;;2108573;67;20190;-70
2021/12/21 05:19:09;;;;;;;24.35;14.35;;;-2.90;99.90;;;;;;2125564;67;20149;-70
2021/12/21 05:21:51;;;;;;;25.48;15.98;;;-2.90;99.90;;;;;;2111030;67;20210;-70
2021/12/21 05:24:32;;;;;;;23.45;14.80;;;-2.90;99.90;;;;;;2116405;67;20207;-72
2021/12/21 05:27:13;;;;;;;24.08;15.07;;;-2.90;99.90;;;;;;2111846;67;20619;-71
2021/12/21 05:29:55;;;;;;;21.35;15.20;;;-2.90;99.90;;;;;;2109261;67;20200;-70
2021/12/21 05:32:37;;;;;;;22.67;16.33;;;-2.90;99.90;;;;;;2119062;67;21021;-68
2021/12/21 05:35:20;;;;;;;21.20;14.90;;;-2.90;99.90;;;;;;2114636;67;20193;-69
2021/12/21 05:38:06;;;;;;;20.83;15.75;;;-2.90;99.90;;;;;;2122183;67;20666;-68
2021/12/21 05:40:47;;;;;;;;;;;-2.90;99.90;;;;;;2128462;67;20438;-71
2021/12/21 05:43:38;;;;;;;23.58;15.82;;;-2.90;99.90;;;;;;2125942;67;20185;-72
2021/12/21 05:46:21;;;;;;;24.10;13.43;;;-3.00;99.90;;;;;;2116442;67;20177;-71
2021/12/21 05:49:03;;;;;;;22.15;14.57;;;-3.00;99.90;;;;;;2134454;67;20384;-70
2021/12/21 05:51:46;;;;;;;24.13;15.02;;;-2.90;99.90;;;;;;2127373;67;20192;-71
2021/12/21 05:54:29;;;;;;;27.88;15.93;;;-2.90;99.90;;;;;;2126907;67;20195;-72
2021/12/21 05:57:11;;;;;;;25.42;14.23;;;-2.90;99.90;;;;;;2118983;67;20306;-71
2021/12/21 05:59:53;;;;;;;20.30;13.95;;;-3.00;99.90;;;;;;2128335;67;20211;-72
2021/12/21 06:02:34;;;;;;;26.77;14.38;;;-3.00;99.90;;;;;;2119702;67;20181;-71
2021/12/21 06:05:16;;;;;;;27.17;14.45;;;-3.00;99.90;;;;;;2109585;67;20240;-70
2021/12/21 06:07:58;;;;;;;26.92;15.40;;;-2.60;99.90;;;;;;2125097;67;20312;-70
2021/12/21 06:10:42;;;;;;;17.65;13.10;;;-3.10;99.90;;;;;;2111438;67;20178;-71
2021/12/21 06:26:12;;;;;;;17.40;11.55;;;-3.00;99.90;;;;;;2101144;67;20330;-71
2021/12/21 06:28:29;;;;;;;15.82;11.27;;;-3.00;99.90;;;;;;2100964;68;20463;-71
2021/12/21 06:31:10;;;;;;;18.27;10.75;;;-3.00;99.90;;;;;;2118096;67;20369;-71
2021/12/21 06:33:52;;;;;;;17.75;11.95;;;-3.00;99.90;;;;;;1889323;67;15105483;-70
2021/12/21 06:36:34;;;;;;;17.50;11.88;;;-3.00;99.90;;;;;;2097422;68;20324;-70
2021/12/21 06:39:16;;;;;;;19.00;11.57;;;-3.00;99.90;;;;;;2101091;67;20391;-69
2021/12/21 06:42:01;;;;;;;17.70;12.60;;;-3.00;99.90;;;;;;2094073;68;20228;-69
2021/12/21 06:44:53;;;;;;;16.90;12.63;;;-3.00;99.90;;;;;;2103827;67;20747;-70
2021/12/21 06:53:41;;;;;;;22.02;11.82;;;-3.00;99.90;;;;;;2115682;67;20193;-70
2021/12/21 06:56:27;;;;;;;24.02;12.23;;;-3.10;99.90;;;;;;2114742;67;20248;-70
2021/12/21 06:59:09;;;;;;;16.95;11.70;;;-3.10;99.90;;;;;;2105908;67;20309;-70
2021/12/21 07:01:52;;;;;;;16.88;12.52;;;-3.10;99.90;;;;;;2113117;67;20202;-70
2021/12/21 07:04:34;;;;;;;17.55;12.32;;;-3.10;99.90;;;;;;2116387;67;20184;-70
2021/12/21 07:07:17;;;;;;;22.05;12.07;;;-3.10;99.90;;;;;;2119553;67;20899;-70
2021/12/21 07:10:04;;;;;;;20.83;13.50;;;-3.10;99.90;;;;;;2096647;68;20388;-71
2021/12/21 07:18:29;;;;;;;17.23;11.10;;;-3.10;99.90;;;;;;2105958;67;20262;-69
2021/12/21 07:21:11;;;;;;;19.30;12.23;;;-3.10;99.90;;;;;;2120675;67;20777;-71
2021/12/21 07:23:53;;;;;;;16.15;11.07;;;-3.10;99.90;;;;;;2110675;67;20295;-71
2021/12/21 07:26:35;;;;;;;18.45;11.05;;;-3.10;99.90;;;;;;2125173;67;20176;-70
2021/12/21 07:29:20;;;;;;;22.30;11.90;;;-3.10;99.90;;;;;;2109844;67;20812;-70
2021/12/21 07:32:02;;;;;;;15.15;10.55;;;-3.10;99.90;;;;;;2102394;67;20278;-70
2021/12/21 07:34:45;;;;;;;18.42;12.65;;;-3.10;99.90;;;;;;2111613;67;20265;-69
2021/12/21 07:37:29;;;;;;;;;;;-3.10;99.90;;;;;;2110680;67;20798;-71
2021/12/21 07:40:15;;;;;;;17.30;12.10;;;-3.10;99.90;;;;;;2118427;67;21124;-71
2021/12/21 07:42:57;;;;;;;14.85;11.68;;;-3.10;99.90;;;;;;2125807;67;20253;-70
2021/12/21 07:45:40;;;;;;;21.35;12.35;;;-3.10;99.90;;;;;;2127907;67;21343;-70
2021/12/21 07:48:26;;;;;;;28.65;12.52;;;-3.10;99.90;;;;;;2132139;67;20834;-70
2021/12/21 07:51:10;;;;;;;21.25;13.15;;;-3.10;99.90;;;;;;2129188;67;20401;-73
2021/12/21 07:53:55;;;;;;;19.27;12.40;;;-3.10;99.90;;;;;;2123920;67;20203;-70
2021/12/21 07:56:37;;;;;;;19.05;12.30;;;-3.10;99.90;;;;;;2096415;68;20643;-76
2021/12/21 07:59:24;;;;;;;21.15;13.20;;;-3.10;99.90;;;;;;2109998;67;20287;-75
2021/12/21 08:02:30;;;;;;;16.88;11.50;;;-3.10;99.90;;;;;;2084053;68;20254;-74
2021/12/21 08:05:13;;;;;;;19.20;12.48;;;-3.00;99.90;;;;;;2090754;68;20690;-74
2021/12/21 08:08:07;;;;;;;19.30;11.93;;;-2.90;99.90;;;;;;2097229;68;20271;-75
2021/12/21 08:10:56;;;;;;;21.52;11.88;;;-2.80;99.90;;;;;;2105910;67;20650;-74
2021/12/21 08:13:40;;;;;;;23.23;14.40;;;-2.80;99.90;;;;;;2107167;67;20183;-73
2021/12/21 08:16:25;;;;;;;29.52;14.60;;;-2.80;99.90;;;;;;2107233;67;20180;-73
2021/12/21 08:19:09;;;;;;;21.50;14.05;;;-2.70;99.90;;;;;;2110698;67;20649;-73
2021/12/21 08:21:53;;;;;;;22.38;13.77;;;-2.70;99.90;;;;;;2106497;67;20335;-75
2021/12/21 08:24:35;;;;;;;21.83;13.52;;;-2.70;99.90;;;;;;2119372;67;20173;-77
2021/12/21 08:27:18;;;;;;;21.48;15.00;;;-2.70;99.90;;;;;;2117919;67;20243;-79
2021/12/21 08:30:04;;;;;;;19.45;13.00;;;-2.70;99.90;;;;;;2122487;67;20200;-73
2021/12/21 08:32:46;;;;;;;24.02;14.25;;;-2.70;99.90;;;;;;2117440;67;20213;-74
2021/12/21 08:35:28;;;;;;;26.70;15.15;;;-2.70;99.90;;;;;;2116953;67;20273;-75
2021/12/21 08:38:14;;;;;;;22.65;15.32;;;-2.70;99.90;;;;;;2118431;67;20208;-73
2021/12/21 08:41:00;;;;;;;21.17;14.13;;;-2.60;99.90;;;;;;2121511;67;20983;-75
2021/12/21 08:43:45;;;;;;;27.17;16.30;;;-2.50;99.90;;;;;;2124964;67;20274;-72
2021/12/21 08:46:28;;;;;;;28.25;14.85;;;-2.50;99.90;;;;;;2110460;67;20170;-73
2021/12/21 08:49:13;;;;;;;26.38;15.45;;;-2.50;99.90;;;;;;2106321;67;20455;-74
2021/12/21 08:51:57;;;;;;;24.70;17.08;;;-2.40;99.90;;;;;;2117176;67;20406;-73
2021/12/21 08:54:41;;;;;;;22.42;14.85;;;-2.40;99.90;;;;;;2122061;67;20361;-73
2021/12/21 08:57:23;;;;;;;24.50;15.50;;;-2.40;99.90;;;;;;2118672;67;20227;-72
2021/12/21 09:00:09;;;;;;;25.93;17.23;;;-2.30;99.90;;;;;;2122160;67;20331;-73
2021/12/21 09:03:13;;;;;;;26.00;16.45;;;-2.20;99.90;;;;;;2115246;67;20230;-74
2021/12/21 09:05:58;;;;;;;22.40;16.45;;;-2.20;99.90;;;;;;2108412;67;20334;-73
2021/12/21 09:08:40;;;;;;;29.88;16.60;;;-2.20;99.90;;;;;;2116235;67;20235;-75
2021/12/21 09:11:23;;;;;;;23.60;14.95;;;-2.20;99.90;;;;;;2116228;67;20850;-74
2021/12/21 09:14:09;;;;;;;24.15;15.63;;;-2.10;99.90;;;;;;2122398;67;20247;-74
2021/12/21 09:16:55;;;;;;;24.85;14.55;;;-2.00;99.90;;;;;;2117113;67;20395;-76
2021/12/21 09:19:39;;;;;;;;;;;-2.00;99.90;;;;;;2118702;67;20240;-73
2021/12/21 09:22:21;;;;;;;25.70;14.77;;;-1.90;99.90;;;;;;2110620;67;20774;-75
2021/12/21 09:25:03;;;;;;;20.08;13.40;;;-1.90;99.90;;;;;;2108960;67;20312;-71
2021/12/21 09:27:46;;;;;;;19.42;13.88;;;-1.90;99.90;;;;;;2102936;67;20210;-75
2021/12/21 09:30:29;;;;;;;26.50;13.77;;;-1.80;99.90;;;;;;2109372;67;20362;-73
2021/12/21 09:33:14;;;;;;;20.13;11.68;;;-1.70;99.90;;;;;;2112267;67;20232;-74
2021/12/21 09:35:59;;;;;;;20.40;13.07;;;-1.70;99.90;;;;;;2121494;67;20292;-73
2021/12/21 09:38:41;;;;;;;19.38;12.68;;;-1.60;99.90;;;;;;2124241;67;20356;-74
2021/12/21 09:41:24;;;;;;;15.90;12.43;;;-1.50;99.90;;;;;;2115109;67;20258;-72
2021/12/21 09:44:06;;;;;;;24.42;13.00;;;-1.50;99.90;;;;;;2101612;67;20278;-73
2021/12/21 09:46:48;;;;;;;21.38;11.50;;;-1.50;99.90;;;;;;2095901;68;20316;-72
2021/12/21 09:49:29;;;;;;;17.75;12.05;;;-1.40;99.90;;;;;;2102658;68;20683;-74
2021/12/21 09:52:14;;;;;;;18.48;13.85;;;-1.40;99.90;;;;;;2111776;67;20410;-73
2021/12/21 09:55:04;;;;;;;18.02;11.25;;;-1.30;99.90;;;;;;2124607;67;20379;-72
2021/12/21 09:57:47;;;;;;;18.42;11.30;;;-1.30;99.90;;;;;;2111391;67;20297;-72
2021/12/21 10:00:32;;;;;;;18.15;12.40;;;-0.40;99.90;;;;;;2102030;68;20210;-72
2021/12/21 10:03:14;;;;;;;17.35;10.95;;;-1.20;99.90;;;;;;2096100;68;20343;-75
2021/12/21 10:06:06;;;;;;;22.55;12.38;;;-1.10;99.90;;;;;;2097497;67;20423;-73
2021/12/21 10:08:48;;;;;;;30.52;15.80;;;-0.80;99.90;;;;;;2113006;67;21130;-73
2021/12/21 10:11:40;;;;;;;28.75;16.85;;;-0.90;99.90;;;;;;2131576;67;20223;-72
2021/12/21 10:14:24;;;;;;;21.40;16.23;;;-0.80;99.90;;;;;;2117644;67;20438;-73
2021/12/21 10:17:08;;;;;;;22.48;15.18;;;-0.80;99.90;;;;;;2125996;67;20266;-73
2021/12/21 10:19:50;;;;;;;22.80;16.63;;;-0.70;99.90;;;;;;2146855;66;20668;-73
2021/12/21 10:22:33;;;;;;;21.48;14.52;;;-0.60;99.90;;;;;;2153483;66;20306;-70
2021/12/21 10:25:14;;;;;;;19.58;13.80;;;-0.60;99.90;;;;;;2138861;66;20263;-70
2021/12/21 10:27:57;;;;;;;18.90;13.93;;;-0.50;99.90;;;;;;2125668;67;20243;-73
2021/12/21 10:30:53;;;;;;;16.02;12.45;;;-0.50;99.90;;;;;;2133071;67;20711;-74
2021/12/21 10:33:40;;;;;;;14.85;10.43;;;-0.50;99.90;;;;;;2136144;67;20195;-74
2021/12/21 10:36:24;;;;;;;16.60;12.52;;;-0.40;99.90;;;;;;2122090;67;20781;-75
2021/12/21 10:39:06;;;;;;;14.60;10.88;;;-0.40;99.90;;;;;;2130742;67;20192;-74
2021/12/21 10:41:51;;;;;;;16.15;9.02;;;-0.20;99.90;;;;;;2140180;66;20341;-73
2021/12/21 10:44:32;;;;;;;18.23;9.80;;;-0.20;99.90;;;;;;2147593;66;20335;-74
2021/12/21 10:47:16;;;;;;;20.52;9.55;;;0.00;99.90;;;;;;2145790;66;20321;-73
2021/12/21 10:50:01;;;;;;;13.95;8.35;;;-0.20;99.90;;;;;;2153928;66;20166;-71
2021/12/21 10:52:41;;;;;;;14.05;8.48;;;0.60;99.90;;;;;;2151105;66;20824;-72
2021/12/21 10:55:27;;;;;;;16.40;10.73;;;0.00;99.90;;;;;;2132705;67;20235;-72
2021/12/21 10:58:08;;;;;;;10.75;8.75;;;0.10;99.90;;;;;;2134638;67;20838;-70
2021/12/21 11:00:44;;;;;;;15.43;8.27;;;0.20;99.90;;;;;;2134118;66;20227;-70
2021/12/21 11:03:37;;;;;;;15.27;8.63;;;0.30;99.90;;;;;;2132720;67;20689;-70
2021/12/21 11:06:26;;;;;;;12.57;7.75;;;0.40;99.90;;;;;;2138142;66;20284;-72
2021/12/21 11:09:17;;;;;;;12.50;7.75;;;0.50;99.90;;;;;;2167891;65;20368;-67
2021/12/21 11:11:53;;;;;;;13.73;7.93;;;0.70;99.90;;;;;;2174688;65;20314;-74
2021/12/21 11:14:25;;;;;;;13.32;7.00;;;1.00;99.90;;;;;;2174672;65;20175;-73
2021/12/21 11:17:19;;;;;;;12.77;6.90;;;1.50;99.90;;;;;;2174634;65;20176;-73
2021/12/21 11:19:58;;;;;;;12.32;7.30;;;2.10;99.90;;;;;;2195555;65;20281;-73
2021/12/21 11:22:52;;;;;;;10.63;6.88;;;2.70;99.90;;;;;;2208059;64;20347;-73
2021/12/21 11:25:30;;;;;;;9.93;6.97;;;3.20;99.90;;;;;;2210265;64;20709;-71
2021/12/21 11:28:29;;;;;;;12.38;7.20;;;3.80;99.90;;;;;;2181190;65;20690;-74
2021/12/21 11:31:10;;;;;;;11.23;5.95;;;4.40;99.90;;;;;;2179673;65;20257;-71
2021/12/21 11:33:48;;;;;;;7.90;6.30;;;4.70;99.90;;;;;;2182285;65;20680;-74
2021/12/21 11:39:50;;;;;;;7.90;6.80;;;5.00;99.90;;;;;;2179961;65;20179;-71
2021/12/21 11:42:25;;;;;;;7.47;6.60;;;5.20;99.90;;;;;;2203654;64;20252;-71
2021/12/21 11:45:27;;;;;;;13.35;6.60;;;5.20;99.90;;;;;;2181953;65;20191;-73
2021/12/21 11:48:28;;;;;;;7.90;6.13;;;5.30;99.90;;;;;;2195248;65;20189;-71
2021/12/21 11:51:13;;;;;;;10.02;6.68;;;5.20;99.90;;;;;;2195354;65;20351;-71
2021/12/21 11:53:58;;;;;;;9.00;5.93;;;5.30;99.90;;;;;;2181973;65;20681;-72
2021/12/21 11:56:41;;;;;;;9.20;5.85;;;5.20;99.90;;;;;;2182064;65;20809;-69
2021/12/21 11:59:23;;;;;;;11.77;6.63;;;5.20;99.90;;;;;;2165898;65;20685;-70
2021/12/21 12:02:07;;;;;;;12.82;6.20;;;5.20;99.90;;;;;;2152154;66;20330;-70
2021/12/21 12:04:56;;;;;;;16.20;5.90;;;5.10;99.90;;;;;;2152283;66;20217;-71
2021/12/21 12:07:39;;;;;;;6.07;4.85;;;5.10;99.90;;;;;;2145179;66;20154;-71
2021/12/21 12:10:21;;;;;;;8.60;5.55;;;5.10;99.90;;;;;;2146047;66;20935;-73
2021/12/21 12:13:12;;;;;;;8.77;5.47;;;5.00;99.90;;;;;;2137861;67;20339;-71
2021/12/21 12:16:17;;;;;;;10.63;5.75;;;4.90;99.90;;;;;;2131182;67;20317;-72
2021/12/21 12:19:13;;;;;;;8.65;6.15;;;4.90;99.90;;;;;;2116870;67;20201;-72
2021/12/21 12:22:02;;;;;;;11.68;4.97;;;4.90;99.90;;;;;;2112370;67;20272;-71
2021/12/21 12:24:57;;;;;;;8.02;4.88;;;5.00;99.90;;;;;;2120392;67;20224;-70
2021/12/21 12:27:47;;;;;;;8.27;4.50;;;5.10;99.90;;;;;;2115012;67;20181;-74
2021/12/21 12:30:31;;;;;;;5.68;4.35;;;5.30;99.90;;;;;;2121201;67;20686;-73
2021/12/21 12:33:17;;;;;;;8.88;5.55;;;5.50;99.90;;;;;;2131595;66;20270;-73
2021/12/21 12:36:04;;;;;;;5.97;4.35;;;5.90;99.90;;;;;;2138586;66;20359;-72
2021/12/21 12:38:49;;;;;;;14.35;5.30;;;6.30;99.90;;;;;;2146261;66;20842;-74
2021/12/21 12:41:46;;;;;;;5.78;4.10;;;7.00;99.90;;;;;;2146030;66;20216;-71
2021/12/21 12:44:28;;;;;;;9.05;5.25;;;7.50;99.90;;;;;;2145756;66;20171;-70
2021/12/21 12:47:12;;;;;;;8.50;4.90;;;8.00;99.90;;;;;;2145265;66;20236;-70
2021/12/21 12:49:57;;;;;;;9.70;5.05;;;8.50;99.90;;;;;;2136697;66;20757;-71
2021/12/21 12:52:53;;;;;;;7.28;4.72;;;9.00;99.90;;;;;;2119802;67;20238;-71
2021/12/21 12:55:58;;;;;;;8.80;4.57;;;9.50;99.90;;;;;;2127612;67;20211;-71
2021/12/21 12:58:48;;;;;;;7.38;4.60;;;10.00;99.90;;;;;;2139822;66;20182;-72
2021/12/21 13:01:32;;;;;;;9.23;4.82;;;10.50;99.90;;;;;;2125630;67;20504;-73
2021/12/21 13:04:18;;;;;;;8.45;4.15;;;11.00;99.90;;;;;;2124503;67;20339;-73
2021/12/21 13:07:00;;;;;;;7.82;4.65;;;11.30;99.90;;;;;;2130357;67;21337;-81
2021/12/21 13:09:42;;;;;;;7.57;5.05;;;11.50;99.90;;;;;;2129457;67;20216;-68
2021/12/21 13:12:27;;;;;;;8.40;4.00;;;11.60;97.60;;;;;;2121799;67;20301;-68
2021/12/21 13:15:09;;;;;;;8.75;3.65;;;11.90;94.00;;;;;;2132096;67;20347;-71
2021/12/21 13:18:01;;;;;;;13.55;5.07;;;11.60;90.30;;;;;;2138199;66;20652;-72
2021/12/21 13:20:52;;;;;;;7.03;4.18;;;11.30;82.60;;;;;;2135047;66;20223;-72
2021/12/21 13:23:34;;;;;;;5.97;4.10;;;10.90;84.70;;;;;;2131151;67;20183;-72
2021/12/21 13:26:16;;;;;;;8.82;4.75;;;10.50;85.30;;;;;;2140588;66;20517;-72
2021/12/21 13:28:59;;;;;;;9.05;5.22;;;10.20;85.70;;;;;;2143554;66;20264;-70
2021/12/21 13:31:47;;;;;;;7.75;4.80;;;10.10;84.00;;;;;;2115865;67;20317;-71
2021/12/21 13:34:32;;;;;;;8.88;4.47;;;9.90;84.70;;;;;;2133079;67;20791;-72
2021/12/21 13:37:18;;;;;;;8.02;4.85;;;9.70;85.00;;;;;;2148405;66;20325;-74
2021/12/21 13:40:02;;;;;;;8.00;4.68;;;9.40;84.70;;;;;;2166818;65;20352;-70
2021/12/21 13:42:44;;;;;;;10.02;4.35;;;8.80;84.20;;;;;;2158858;66;20312;-70
2021/12/21 13:45:27;;;;;;;6.40;4.38;;;8.30;85.00;;;;;;2160344;66;20405;-69
2021/12/21 13:48:18;;;;;;;6.75;4.03;;;7.80;86.10;;;;;;2160340;66;20299;-71
2021/12/21 13:51:14;;;;;;;8.68;4.13;;;7.30;87.30;;;;;;2145223;66;20352;-71
2021/12/21 13:53:58;;;;;;;6.85;4.10;;;6.80;90.20;;;;;;2139878;66;20206;-71
2021/12/21 13:56:40;;;;;;;11.75;4.45;;;6.50;91.50;;;;;;2136859;66;20634;-71
2021/12/21 13:59:25;;;;;;;8.00;4.40;;;6.20;92.50;;;;;;2149080;66;20237;-70
2021/12/21 14:02:10;;;;;;;6.03;4.00;;;5.90;94.80;;;;;;2148201;66;20233;-70
2021/12/21 14:05:03;;;;;;;11.23;6.05;;;5.70;96.50;;;;;;2139200;66;20183;-69
2021/12/21 14:07:49;;;;;;;11.77;6.60;;;5.50;98.30;;;;;;2138364;66;20252;-73
2021/12/21 14:10:41;;;;;;;15.57;8.93;;;5.30;99.90;;;;;;2149156;66;20372;-70
2021/12/21 14:13:40;;;;;;;14.52;10.05;;;5.10;99.90;;;;;;2141935;66;20432;-70
2021/12/21 14:16:24;;;;;;;8.88;5.35;;;5.30;99.90;;;;;;2130931;67;20331;-77
2021/12/21 14:19:07;;;;;;;6.43;4.38;;;4.70;99.90;;;;;;2127811;67;20247;-76
2021/12/21 14:22:04;;;;;;;9.60;6.15;;;4.60;99.90;;;;;;2136811;66;20252;-75
2021/12/21 14:24:48;;;;;;;10.55;5.35;;;5.30;99.90;;;;;;2127690;67;20765;-76
2021/12/21 14:27:30;;;;;;;7.55;4.70;;;4.30;99.90;;;;;;2133160;67;20263;-71
2021/12/21 14:30:17;;;;;;;9.63;5.20;;;4.30;99.90;;;;;;2117876;67;20184;-73
2021/12/21 14:33:20;;;;;;;8.88;5.03;;;4.20;99.90;;;;;;2106751;67;20416;-72
2021/12/21 14:36:03;;;;;;;6.55;4.72;;;4.00;99.90;;;;;;2104322;67;20295;-74
2021/12/21 14:39:00;;;;;;;7.28;4.55;;;3.90;99.90;;;;;;2098234;68;20797;-71
2021/12/21 14:41:44;;;;;;;10.18;4.57;;;3.80;99.90;;;;;;2098117;68;20344;-70
2021/12/21 14:44:57;;;;;;;8.32;4.60;;;3.80;99.90;;;;;;2104643;67;20348;-70
2021/12/21 14:47:40;;;;;;;5.60;4.32;;;3.70;99.90;;;;;;2100311;67;20354;-71
2021/12/21 14:50:33;;;;;;;11.80;6.38;;;3.50;99.90;;;;;;2103755;67;20358;-70
2021/12/21 14:53:21;;;;;;;7.35;4.85;;;3.60;99.90;;;;;;2116181;67;20253;-71
2021/12/21 14:56:03;;;;;;;7.95;4.80;;;3.40;99.90;;;;;;2110150;67;20363;-73
2021/12/21 14:58:55;;;;;;;11.23;5.50;;;3.30;99.90;;;;;;2114580;67;20229;-72
2021/12/21 15:01:51;;;;;;;7.43;5.13;;;3.20;99.90;;;;;;2107800;67;20212;-68
2021/12/21 15:04:42;;;;;;;8.13;5.20;;;3.10;99.90;;;;;;2110763;67;20540;-74
2021/12/21 15:07:27;;;;;;;12.35;5.95;;;3.00;99.90;;;;;;2099764;67;20198;-71
2021/12/21 15:10:14;;;;;;;8.82;5.70;;;3.20;99.90;;;;;;2098689;68;20316;-72
2021/12/21 15:12:56;;;;;;;9.68;5.55;;;2.80;99.90;;;;;;2099151;67;20301;-72
2021/12/21 15:15:39;;;;;;;8.25;5.00;;;2.80;99.90;;;;;;2098623;67;20356;-72
2021/12/21 15:18:22;;;;;;;13.05;6.07;;;2.70;99.90;;;;;;2065439;68;20202;-72